Time;durP1;ratioP1;P1;durP2;ratioP2;P2;SDS_P1;SDS_P2;PMS_P1;PMS_P2;Temp;Humidity;BMP_temperature;BMP_pressure;BME280_temperature;BME280_humidity;BME280_pressure;Samples;Min_cycle;Max_cycle;Signal;HPM_P1;HPM_P2
2022/01/31 00:02:05;;;;;;;51.47;6.93;;;;;;;;;;4974394;28;20137;-69
2022/01/31 00:04:32;;;;;;;48.95;6.57;;;;;;;;;;4978803;28;20483;-68
2022/01/31 00:06:57;;;;;;;49.72;7.20;;;;;;;;;;4987072;28;20045;-68
2022/01/31 00:09:24;;;;;;;65.57;8.73;;;;;;;;;;4977986;28;20521;-68
2022/01/31 00:11:57;;;;;;;54.60;8.10;;;;;;;;;;4993388;28;21940;-69
2022/01/31 00:14:37;;;;;;;49.75;7.03;;;;;;;;;;4978720;28;20039;-68
2022/01/31 00:17:05;;;;;;;60.53;8.63;;;;;;;;;;4979620;28;20148;-70
2022/01/31 00:19:31;;;;;;;56.13;7.68;;;;;;;;;;4978158;28;20038;-68
2022/01/31 00:22:06;;;;;;;52.72;8.13;;;;;;;;;;4979352;28;20152;-68
2022/01/31 00:24:33;;;;;;;65.38;10.15;;;;;;;;;;4978179;28;20022;-68
2022/01/31 00:26:58;;;;;;;68.45;8.23;;;;;;;;;;4982618;28;20037;-69
2022/01/31 00:29:23;;;;;;;71.15;9.90;;;;;;;;;;4978659;28;20427;-69
2022/01/31 00:31:49;;;;;;;83.88;9.38;;;;;;;;;;4979095;28;20172;-67
2022/01/31 00:34:15;;;;;;;65.13;9.13;;;;;;;;;;4978210;28;22059;-67
2022/01/31 00:36:40;;;;;;;66.45;8.32;;;;;;;;;;4973555;28;20042;-68
2022/01/31 00:39:06;;;;;;;66.03;10.25;;;;;;;;;;4978312;28;20034;-70
2022/01/31 00:41:31;;;;;;;65.53;11.20;;;;;;;;;;4978518;28;20136;-67
2022/01/31 00:44:16;;;;;;;66.90;9.30;;;;;;;;;;4979223;28;21877;-67
2022/01/31 00:46:46;;;;;;;62.90;9.60;;;;;;;;;;4978850;28;20034;-68
2022/01/31 00:49:23;;;;;;;69.70;9.70;;;;;;;;;;4978224;28;20418;-68
2022/01/31 00:51:50;;;;;;;78.18;9.68;;;;;;;;;;4978492;28;20034;-67
2022/01/31 00:54:18;;;;;;;59.65;9.57;;;;;;;;;;4978133;28;20171;-69
2022/01/31 00:56:45;;;;;;;75.15;9.40;;;;;;;;;;4977852;28;20026;-68
2022/01/31 00:59:10;;;;;;;77.68;9.60;;;;;;;;;;4982178;28;20125;-67
2022/01/31 01:01:36;;;;;;;78.80;10.10;;;;;;;;;;4993167;28;20087;-67
2022/01/31 01:04:01;;;;;;;68.75;9.70;;;;;;;;;;4973077;28;20061;-67
2022/01/31 01:06:27;;;;;;;90.13;10.00;;;;;;;;;;4978280;28;20049;-66
2022/01/31 01:08:52;;;;;;;84.57;10.40;;;;;;;;;;4992610;28;20030;-68
2022/01/31 01:11:17;;;;;;;79.68;10.15;;;;;;;;;;4978347;28;20253;-68
2022/01/31 01:13:43;;;;;;;74.15;9.18;;;;;;;;;;4977614;28;20173;-68
2022/01/31 01:16:08;;;;;;;64.82;8.93;;;;;;;;;;4992776;28;20143;-69
2022/01/31 01:18:36;;;;;;;70.72;10.18;;;;;;;;;;4992318;28;20033;-69
2022/01/31 01:21:01;;;;;;;83.57;11.00;;;;;;;;;;4978525;28;20069;-67
2022/01/31 01:23:27;;;;;;;68.85;9.95;;;;;;;;;;4977121;28;20121;-68
2022/01/31 01:25:54;;;;;;;73.07;10.27;;;;;;;;;;4973029;28;20161;-67
2022/01/31 01:28:22;;;;;;;69.88;10.60;;;;;;;;;;4977831;28;20182;-68
2022/01/31 01:30:48;;;;;;;75.25;10.73;;;;;;;;;;4977878;28;20049;-67
2022/01/31 01:33:19;;;;;;;59.08;10.75;;;;;;;;;;4972587;28;20042;-68
2022/01/31 01:35:47;;;;;;;60.53;10.27;;;;;;;;;;4980064;28;20467;-69
2022/01/31 01:38:15;;;;;;;55.40;9.18;;;;;;;;;;4989118;28;20061;-68
2022/01/31 01:40:41;;;;;;;65.03;10.02;;;;;;;;;;4962610;28;20064;-70
2022/01/31 01:43:07;;;;;;;56.42;8.93;;;;;;;;;;4976927;28;20097;-70
2022/01/31 01:45:32;;;;;;;47.08;8.70;;;;;;;;;;4982352;28;20405;-68
2022/01/31 01:48:00;;;;;;;52.05;9.10;;;;;;;;;;4988183;28;20147;-70
2022/01/31 01:50:27;;;;;;;52.63;10.23;;;;;;;;;;4976915;28;20130;-69
2022/01/31 01:52:55;;;;;;;55.28;9.05;;;;;;;;;;4989784;28;20037;-69
2022/01/31 01:55:21;;;;;;;39.83;7.78;;;;;;;;;;5004041;28;20037;-69
2022/01/31 01:57:47;;;;;;;48.58;8.65;;;;;;;;;;4990546;28;20041;-69
2022/01/31 02:00:26;;;;;;;62.75;9.43;;;;;;;;;;4990283;28;20026;-69
2022/01/31 02:02:51;;;;;;;48.33;8.60;;;;;;;;;;4990167;28;20162;-69
2022/01/31 02:05:17;;;;;;;48.55;8.18;;;;;;;;;;4994241;28;20041;-69
2022/01/31 02:07:43;;;;;;;57.60;9.30;;;;;;;;;;4988827;28;20038;-70
2022/01/31 02:10:09;;;;;;;47.83;8.23;;;;;;;;;;4989260;28;20038;-70
2022/01/31 02:12:53;;;;;;;40.03;7.22;;;;;;;;;;5003972;28;20052;-71
2022/01/31 02:15:24;;;;;;;46.10;8.40;;;;;;;;;;4989995;28;20034;-69
2022/01/31 02:17:50;;;;;;;49.17;8.20;;;;;;;;;;4990520;28;20022;-71
2022/01/31 02:20:16;;;;;;;49.72;7.88;;;;;;;;;;4989700;28;20037;-71
2022/01/31 02:22:41;;;;;;;40.42;7.53;;;;;;;;;;4989232;28;20597;-71
2022/01/31 02:25:07;;;;;;;52.92;7.70;;;;;;;;;;4989108;28;20120;-71
2022/01/31 02:27:34;;;;;;;53.20;8.25;;;;;;;;;;4990210;28;21945;-71
2022/01/31 02:29:59;;;;;;;38.40;7.05;;;;;;;;;;4977708;28;20182;-70
2022/01/31 02:32:25;;;;;;;55.97;8.25;;;;;;;;;;4987830;28;20038;-70
2022/01/31 02:34:50;;;;;;;54.17;7.70;;;;;;;;;;4988321;28;20265;-70
2022/01/31 02:37:19;;;;;;;42.05;7.18;;;;;;;;;;4989075;28;20228;-70
2022/01/31 02:39:47;;;;;;;35.72;6.25;;;;;;;;;;4987843;28;20226;-68
2022/01/31 02:42:13;;;;;;;39.08;5.90;;;;;;;;;;5003670;28;20108;-69
2022/01/31 02:44:44;;;;;;;39.20;7.07;;;;;;;;;;4988674;28;20046;-69
2022/01/31 02:47:12;;;;;;;53.90;8.27;;;;;;;;;;4989634;28;20034;-70
2022/01/31 02:49:56;;;;;;;51.03;7.85;;;;;;;;;;5000041;28;20521;-68
2022/01/31 02:52:23;;;;;;;41.97;7.25;;;;;;;;;;4983770;28;20066;-70
2022/01/31 02:54:53;;;;;;;42.97;6.80;;;;;;;;;;4980554;28;20481;-70
2022/01/31 02:57:21;;;;;;;44.13;6.38;;;;;;;;;;4979866;28;20586;-68
2022/01/31 02:59:49;;;;;;;34.10;6.78;;;;;;;;;;4980311;28;20034;-69
2022/01/31 03:02:15;;;;;;;37.78;6.85;;;;;;;;;;4980439;28;20033;-68
2022/01/31 03:04:40;;;;;;;47.30;6.72;;;;;;;;;;4994443;28;20041;-68
2022/01/31 03:07:06;;;;;;;43.95;6.90;;;;;;;;;;4994275;28;20045;-70
2022/01/31 03:09:31;;;;;;;46.58;7.60;;;;;;;;;;4994511;28;20037;-67
2022/01/31 03:11:57;;;;;;;56.42;9.23;;;;;;;;;;4979989;28;20470;-70
2022/01/31 03:14:26;;;;;;;50.83;7.43;;;;;;;;;;4978227;28;20076;-67
2022/01/31 03:16:51;;;;;;;41.20;7.80;;;;;;;;;;4979713;28;20309;-69
2022/01/31 03:19:20;;;;;;;55.22;8.25;;;;;;;;;;4979491;28;20026;-71
2022/01/31 03:21:48;;;;;;;39.50;7.50;;;;;;;;;;4974672;28;20325;-71
2022/01/31 03:24:13;;;;;;;44.03;7.80;;;;;;;;;;4974594;28;20026;-70
2022/01/31 03:26:42;;;;;;;54.45;8.32;;;;;;;;;;4979644;28;20060;-69
2022/01/31 03:29:08;;;;;;;43.45;7.05;;;;;;;;;;4979400;28;20137;-70
2022/01/31 03:31:33;;;;;;;37.03;6.85;;;;;;;;;;4974675;28;20042;-69
2022/01/31 03:34:05;;;;;;;47.95;7.40;;;;;;;;;;4978682;28;20068;-69
2022/01/31 03:36:33;;;;;;;57.47;9.68;;;;;;;;;;4979302;28;20069;-69
2022/01/31 03:39:01;;;;;;;55.45;8.85;;;;;;;;;;4973822;28;20030;-71
2022/01/31 03:41:26;;;;;;;53.97;7.43;;;;;;;;;;4979845;28;20022;-72
2022/01/31 03:43:52;;;;;;;45.00;9.10;;;;;;;;;;4990082;28;20174;-72
2022/01/31 03:46:17;;;;;;;49.70;6.38;;;;;;;;;;4980127;28;20030;-72
2022/01/31 03:48:45;;;;;;;49.70;8.93;;;;;;;;;;4978998;28;20169;-72
2022/01/31 03:51:10;;;;;;;49.05;7.85;;;;;;;;;;4979193;28;20038;-69
2022/01/31 03:53:35;;;;;;;44.83;6.45;;;;;;;;;;4979052;28;20559;-70
2022/01/31 03:56:01;;;;;;;41.75;6.28;;;;;;;;;;4979387;28;20037;-70
2022/01/31 03:58:29;;;;;;;37.65;6.90;;;;;;;;;;4986762;28;20048;-70
2022/01/31 04:00:54;;;;;;;49.78;7.45;;;;;;;;;;4973497;28;20050;-68
2022/01/31 04:03:20;;;;;;;52.33;6.97;;;;;;;;;;4992836;28;20132;-71
2022/01/31 04:05:45;;;;;;;52.47;8.40;;;;;;;;;;4979303;28;20030;-70
2022/01/31 04:08:13;;;;;;;48.75;8.55;;;;;;;;;;4976922;28;20038;-68
2022/01/31 04:10:56;;;;;;;46.45;7.70;;;;;;;;;;4999502;28;20036;-69
2022/01/31 04:13:21;;;;;;;46.38;9.73;;;;;;;;;;5010143;28;20056;-68
2022/01/31 04:15:49;;;;;;;39.60;6.35;;;;;;;;;;5010469;28;20079;-69
2022/01/31 04:18:14;;;;;;;56.80;9.38;;;;;;;;;;4993633;28;20067;-69
2022/01/31 04:20:39;;;;;;;50.42;7.47;;;;;;;;;;5010447;28;20049;-68
2022/01/31 04:23:11;;;;;;;38.22;6.07;;;;;;;;;;5010045;28;20025;-67
2022/01/31 04:25:52;;;;;;;46.40;8.57;;;;;;;;;;5010887;28;20515;-68
2022/01/31 04:30:59;;;;;;;41.67;5.88;;;;;;;;;;5010516;28;20044;-70
2022/01/31 04:33:26;;;;;;;38.78;5.80;;;;;;;;;;5009949;28;20032;-69
2022/01/31 04:35:54;;;;;;;37.67;5.53;;;;;;;;;;5001196;28;20539;-69
2022/01/31 04:38:20;;;;;;;56.28;8.45;;;;;;;;;;5010891;28;20068;-70
2022/01/31 04:40:45;;;;;;;51.63;8.00;;;;;;;;;;5010338;28;20096;-68
2022/01/31 04:43:11;;;;;;;47.40;7.13;;;;;;;;;;4978193;28;20078;-69
2022/01/31 04:45:36;;;;;;;53.28;8.20;;;;;;;;;;4978397;28;20417;-69
2022/01/31 04:48:04;;;;;;;49.72;7.07;;;;;;;;;;4982827;28;20034;-67
2022/01/31 04:50:30;;;;;;;54.70;7.75;;;;;;;;;;4986222;28;20034;-69
2022/01/31 04:52:57;;;;;;;55.15;7.45;;;;;;;;;;4978542;28;20395;-69
2022/01/31 04:55:23;;;;;;;43.08;5.90;;;;;;;;;;4989279;28;20470;-69
2022/01/31 04:57:48;;;;;;;54.92;8.07;;;;;;;;;;4993376;28;20034;-67
2022/01/31 05:00:16;;;;;;;44.28;8.50;;;;;;;;;;4989074;28;20372;-69
2022/01/31 05:02:43;;;;;;;49.08;8.55;;;;;;;;;;4978356;28;20054;-70
2022/01/31 05:05:09;;;;;;;46.25;7.43;;;;;;;;;;4989337;28;20455;-69
2022/01/31 05:07:37;;;;;;;54.33;7.90;;;;;;;;;;4973565;28;20034;-67
2022/01/31 05:10:02;;;;;;;54.25;8.07;;;;;;;;;;4992757;28;20197;-68
2022/01/31 05:12:28;;;;;;;45.83;7.40;;;;;;;;;;4978460;28;20033;-68
2022/01/31 05:14:55;;;;;;;71.03;9.50;;;;;;;;;;4980385;28;20064;-70
2022/01/31 05:17:20;;;;;;;72.10;9.07;;;;;;;;;;4977828;28;20534;-70
2022/01/31 05:19:48;;;;;;;49.30;8.95;;;;;;;;;;4979601;28;20030;-69
2022/01/31 05:22:13;;;;;;;67.28;8.50;;;;;;;;;;4981924;28;20057;-69
2022/01/31 05:24:39;;;;;;;46.58;7.35;;;;;;;;;;4981501;28;20026;-68
2022/01/31 05:27:04;;;;;;;58.88;7.63;;;;;;;;;;4982239;28;20072;-68
2022/01/31 05:29:30;;;;;;;59.53;7.10;;;;;;;;;;4981775;28;20044;-67
2022/01/31 05:31:57;;;;;;;51.00;7.55;;;;;;;;;;4981868;28;20029;-68
2022/01/31 05:34:25;;;;;;;53.88;8.57;;;;;;;;;;4996189;28;20256;-68
2022/01/31 05:36:54;;;;;;;62.17;8.32;;;;;;;;;;4982433;28;20064;-67
2022/01/31 05:39:21;;;;;;;59.80;9.45;;;;;;;;;;4981525;28;20030;-67
2022/01/31 05:41:48;;;;;;;55.78;8.38;;;;;;;;;;4982309;28;20433;-69
2022/01/31 05:44:14;;;;;;;58.28;8.18;;;;;;;;;;4981334;28;20054;-68
2022/01/31 05:46:41;;;;;;;71.55;10.23;;;;;;;;;;4996616;28;20042;-66
2022/01/31 05:49:07;;;;;;;57.83;8.15;;;;;;;;;;4981041;28;20228;-69
2022/01/31 05:51:32;;;;;;;43.20;8.20;;;;;;;;;;4981527;28;20049;-69
2022/01/31 05:53:59;;;;;;;51.30;8.10;;;;;;;;;;4981303;28;20072;-70
2022/01/31 05:56:25;;;;;;;55.75;7.85;;;;;;;;;;4983690;28;20131;-67
2022/01/31 05:58:50;;;;;;;50.65;8.27;;;;;;;;;;4988497;28;20030;-70
2022/01/31 06:01:18;;;;;;;67.68;9.48;;;;;;;;;;4990435;28;20473;-70
2022/01/31 06:03:44;;;;;;;42.47;7.93;;;;;;;;;;4989323;28;20049;-70
2022/01/31 06:06:09;;;;;;;54.42;9.57;;;;;;;;;;4989872;28;20676;-70
2022/01/31 06:08:35;;;;;;;54.50;8.30;;;;;;;;;;4990463;28;20177;-69
2022/01/31 06:11:01;;;;;;;58.47;9.68;;;;;;;;;;4989983;28;20037;-71
2022/01/31 06:13:30;;;;;;;49.47;9.20;;;;;;;;;;5004269;28;20072;-70
2022/01/31 06:15:55;;;;;;;76.40;9.38;;;;;;;;;;4989812;28;20034;-70
2022/01/31 06:18:20;;;;;;;66.63;8.68;;;;;;;;;;4988834;28;20096;-69
2022/01/31 06:20:48;;;;;;;50.67;8.55;;;;;;;;;;4991047;28;20037;-69
2022/01/31 06:23:14;;;;;;;62.83;8.98;;;;;;;;;;4990123;28;20575;-69
2022/01/31 06:25:39;;;;;;;64.55;10.70;;;;;;;;;;4993925;28;21926;-69
2022/01/31 06:28:06;;;;;;;58.53;9.23;;;;;;;;;;4989229;28;20034;-68
2022/01/31 06:30:32;;;;;;;56.95;9.30;;;;;;;;;;4976828;28;20091;-70
2022/01/31 06:32:57;;;;;;;54.05;7.82;;;;;;;;;;4988683;28;20042;-69
2022/01/31 06:35:24;;;;;;;49.25;8.18;;;;;;;;;;4988706;28;20107;-69
2022/01/31 06:37:50;;;;;;;72.60;9.77;;;;;;;;;;4989145;28;20773;-69
2022/01/31 06:40:15;;;;;;;74.97;11.10;;;;;;;;;;4989478;28;20021;-68
2022/01/31 06:42:42;;;;;;;66.07;10.50;;;;;;;;;;4989172;28;20057;-69
2022/01/31 06:45:10;;;;;;;51.50;9.43;;;;;;;;;;4989015;28;20040;-69
2022/01/31 06:47:36;;;;;;;61.17;9.43;;;;;;;;;;4989175;28;20044;-69
2022/01/31 06:50:04;;;;;;;51.10;7.05;;;;;;;;;;5003416;28;22192;-69
2022/01/31 06:52:33;;;;;;;62.90;9.50;;;;;;;;;;4989929;28;20034;-69
2022/01/31 06:55:05;;;;;;;57.25;9.23;;;;;;;;;;5003994;28;20037;-68
2022/01/31 06:57:34;;;;;;;65.38;9.63;;;;;;;;;;4993244;28;20048;-70
2022/01/31 07:00:00;;;;;;;78.75;11.35;;;;;;;;;;4988084;28;20454;-68
2022/01/31 07:02:28;;;;;;;60.22;9.75;;;;;;;;;;4977240;28;20677;-69
2022/01/31 07:04:54;;;;;;;58.75;11.25;;;;;;;;;;4987896;28;20420;-69
2022/01/31 07:07:25;;;;;;;60.80;11.55;;;;;;;;;;4989233;28;20029;-68
2022/01/31 07:09:51;;;;;;;73.53;10.60;;;;;;;;;;4987054;28;20034;-69
2022/01/31 07:12:17;;;;;;;74.32;11.48;;;;;;;;;;4993153;28;20401;-68
2022/01/31 07:14:43;;;;;;;72.50;11.55;;;;;;;;;;4975715;28;20034;-69
2022/01/31 07:17:08;;;;;;;75.28;10.05;;;;;;;;;;4988741;28;20046;-69
2022/01/31 07:19:37;;;;;;;56.53;8.80;;;;;;;;;;4988140;28;20026;-70
2022/01/31 07:22:06;;;;;;;64.70;9.93;;;;;;;;;;4968734;28;20037;-69
2022/01/31 07:27:04;;;;;;;76.60;12.25;;;;;;;;;;4988298;28;20037;-70
2022/01/31 07:29:29;;;;;;;60.13;9.52;;;;;;;;;;5002368;28;20038;-67
2022/01/31 07:31:58;;;;;;;46.70;8.10;;;;;;;;;;4991910;28;20681;-68
2022/01/31 07:34:24;;;;;;;50.70;8.18;;;;;;;;;;4975097;28;20033;-68
2022/01/31 07:36:50;;;;;;;83.05;12.15;;;;;;;;;;4992766;28;20029;-69
2022/01/31 07:39:16;;;;;;;58.83;9.35;;;;;;;;;;4988167;28;20124;-68
2022/01/31 07:41:42;;;;;;;70.25;9.77;;;;;;;;;;4991699;28;20083;-68
2022/01/31 07:44:08;;;;;;;87.82;14.32;;;;;;;;;;4987114;28;20060;-69
2022/01/31 07:46:33;;;;;;;67.15;10.05;;;;;;;;;;4987706;28;20544;-69
2022/01/31 07:48:59;;;;;;;55.92;9.35;;;;;;;;;;4987609;28;20106;-69
2022/01/31 07:51:25;;;;;;;86.57;13.02;;;;;;;;;;4987547;28;20094;-70
2022/01/31 07:53:50;;;;;;;59.42;10.15;;;;;;;;;;4988076;28;20496;-70
2022/01/31 07:56:20;;;;;;;78.90;11.25;;;;;;;;;;4987665;28;20512;-69
2022/01/31 07:58:46;;;;;;;55.72;8.85;;;;;;;;;;4987166;28;20079;-67
2022/01/31 08:01:12;;;;;;;65.47;9.55;;;;;;;;;;4988194;28;20030;-68
2022/01/31 08:03:38;;;;;;;87.00;15.32;;;;;;;;;;4987119;28;20116;-67
2022/01/31 08:06:03;;;;;;;83.15;12.65;;;;;;;;;;4987325;28;20648;-67
2022/01/31 08:08:32;;;;;;;89.85;14.18;;;;;;;;;;4992211;28;20556;-68
2022/01/31 08:11:00;;;;;;;71.18;11.50;;;;;;;;;;4988185;28;20364;-68
2022/01/31 08:13:31;;;;;;;67.10;10.10;;;;;;;;;;4987712;28;20107;-68
2022/01/31 08:18:35;;;;;;;51.47;10.40;;;;;;;;;;4977684;28;20033;-67
2022/01/31 08:21:00;;;;;;;71.00;11.38;;;;;;;;;;5002709;28;20061;-69
2022/01/31 08:23:25;;;;;;;73.93;12.20;;;;;;;;;;4987680;28;20449;-69
2022/01/31 08:25:52;;;;;;;79.63;13.50;;;;;;;;;;4986844;28;20041;-70
2022/01/31 08:28:27;;;;;;;98.70;13.82;;;;;;;;;;4975511;28;20036;-71
2022/01/31 08:30:58;;;;;;;63.78;10.40;;;;;;;;;;4987397;28;20033;-69
2022/01/31 08:33:37;;;;;;;67.15;10.43;;;;;;;;;;4975876;28;20037;-68
2022/01/31 08:36:04;;;;;;;76.10;12.02;;;;;;;;;;4975062;28;20319;-69
2022/01/31 08:38:32;;;;;;;83.20;14.10;;;;;;;;;;4991575;28;20029;-69
2022/01/31 08:40:58;;;;;;;70.20;10.52;;;;;;;;;;4985823;28;20060;-69
2022/01/31 08:43:24;;;;;;;74.70;10.77;;;;;;;;;;4986059;28;20045;-71
2022/01/31 08:45:50;;;;;;;80.13;13.75;;;;;;;;;;4987553;28;20025;-72
2022/01/31 08:48:16;;;;;;;63.63;11.30;;;;;;;;;;4986183;28;20096;-71
2022/01/31 08:50:41;;;;;;;76.43;12.40;;;;;;;;;;4987766;28;20038;-72
2022/01/31 08:53:07;;;;;;;88.45;15.07;;;;;;;;;;4987553;28;20046;-72
2022/01/31 08:55:34;;;;;;;64.13;10.48;;;;;;;;;;4990798;28;20030;-72
2022/01/31 08:58:05;;;;;;;73.80;12.07;;;;;;;;;;4990791;28;20072;-72
2022/01/31 09:00:34;;;;;;;70.07;11.93;;;;;;;;;;4991880;28;20018;-73
2022/01/31 09:03:16;;;;;;;71.88;12.32;;;;;;;;;;4989687;28;20026;-70
2022/01/31 09:05:42;;;;;;;;;;;;;;;;;;4996337;28;20354;-72
2022/01/31 09:08:09;;;;;;;88.22;14.95;;;;;;;;;;4990920;28;19917;-73
2022/01/31 09:10:35;;;;;;;90.10;15.85;;;;;;;;;;4991616;28;20141;-71
2022/01/31 09:13:01;;;;;;;74.22;12.30;;;;;;;;;;4991000;28;20034;-71
2022/01/31 09:15:27;;;;;;;118.25;19.83;;;;;;;;;;4991819;28;20029;-71
2022/01/31 09:17:52;;;;;;;103.90;14.60;;;;;;;;;;4990767;28;20049;-72
2022/01/31 09:20:18;;;;;;;78.55;12.95;;;;;;;;;;4990387;28;20053;-72
2022/01/31 09:22:43;;;;;;;92.53;13.73;;;;;;;;;;4990929;28;20054;-71
2022/01/31 09:25:10;;;;;;;85.72;14.32;;;;;;;;;;4990247;28;20026;-71
2022/01/31 09:27:39;;;;;;;76.30;11.75;;;;;;;;;;4991528;28;20680;-74
2022/01/31 09:30:05;;;;;;;80.70;13.90;;;;;;;;;;4990132;28;20029;-73
2022/01/31 09:32:33;;;;;;;87.35;13.90;;;;;;;;;;4994006;28;20026;-72
2022/01/31 09:34:59;;;;;;;84.63;14.50;;;;;;;;;;4989636;28;20021;-73
2022/01/31 09:37:27;;;;;;;108.30;16.88;;;;;;;;;;4990826;28;20026;-72
2022/01/31 09:39:54;;;;;;;69.38;11.00;;;;;;;;;;4977659;28;20045;-72
2022/01/31 09:42:35;;;;;;;83.15;11.30;;;;;;;;;;4985796;28;20026;-70
2022/01/31 09:45:16;;;;;;;66.20;11.18;;;;;;;;;;4986484;28;20531;-71
2022/01/31 09:50:27;;;;;;;81.00;13.82;;;;;;;;;;4985947;28;20040;-73
2022/01/31 09:52:52;;;;;;;73.50;13.40;;;;;;;;;;4985964;28;20026;-70
2022/01/31 09:55:22;;;;;;;83.88;13.40;;;;;;;;;;4986057;28;20034;-72
2022/01/31 09:57:48;;;;;;;96.28;14.68;;;;;;;;;;5001111;28;20466;-73
2022/01/31 10:00:14;;;;;;;66.50;10.73;;;;;;;;;;4985632;28;20032;-69
2022/01/31 10:02:39;;;;;;;91.90;14.45;;;;;;;;;;5000504;28;20200;-71
2022/01/31 10:05:05;;;;;;;83.70;13.07;;;;;;;;;;4976128;28;20023;-70
2022/01/31 10:07:46;;;;;;;89.03;14.45;;;;;;;;;;4975682;28;20171;-70
2022/01/31 10:10:21;;;;;;;79.80;13.10;;;;;;;;;;4986027;28;20023;-72
2022/01/31 10:18:08;;;;;;;76.65;13.68;;;;;;;;;;4985374;28;20025;-71
2022/01/31 10:20:37;;;;;;;90.25;14.38;;;;;;;;;;4985421;28;20022;-72
2022/01/31 10:23:06;;;;;;;86.68;12.80;;;;;;;;;;4985981;28;20437;-68
2022/01/31 10:25:32;;;;;;;75.07;14.10;;;;;;;;;;4985466;28;20030;-71
2022/01/31 10:27:59;;;;;;;99.43;14.45;;;;;;;;;;4984949;28;20042;-69
2022/01/31 10:30:26;;;;;;;120.43;18.40;;;;;;;;;;4985197;28;20030;-71
2022/01/31 10:32:53;;;;;;;86.93;15.23;;;;;;;;;;4988768;28;20038;-71
2022/01/31 10:35:23;;;;;;;85.05;14.35;;;;;;;;;;4992319;28;20026;-69
2022/01/31 10:37:50;;;;;;;75.00;12.40;;;;;;;;;;4985276;28;20029;-71
2022/01/31 10:53:40;;;;;;;97.40;15.52;;;;;;;;;;4984397;28;20037;-71
2022/01/31 10:56:05;;;;;;;99.30;15.18;;;;;;;;;;4984441;28;20587;-70
2022/01/31 10:58:31;;;;;;;97.10;15.52;;;;;;;;;;4984834;28;20027;-70
2022/01/31 11:01:16;;;;;;;95.85;15.40;;;;;;;;;;4984516;28;20028;-72
2022/01/31 11:03:41;;;;;;;104.90;15.27;;;;;;;;;;4983596;28;20037;-69
2022/01/31 11:06:13;;;;;;;84.20;15.30;;;;;;;;;;4988087;28;20304;-72
2022/01/31 11:08:41;;;;;;;93.83;15.77;;;;;;;;;;4992400;28;20104;-71
2022/01/31 11:11:06;;;;;;;85.53;14.35;;;;;;;;;;4993085;28;20093;-71
2022/01/31 11:13:33;;;;;;;103.78;17.23;;;;;;;;;;4984244;28;20495;-70
2022/01/31 11:16:04;;;;;;;105.63;15.82;;;;;;;;;;4975636;28;20157;-71
2022/01/31 11:18:35;;;;;;;91.38;16.23;;;;;;;;;;4983636;28;20125;-70
2022/01/31 11:21:05;;;;;;;92.25;13.23;;;;;;;;;;4983836;28;20030;-71
2022/01/31 11:23:33;;;;;;;102.10;17.58;;;;;;;;;;4984935;28;20337;-71
2022/01/31 11:25:59;;;;;;;91.78;15.07;;;;;;;;;;4984380;28;20030;-69
2022/01/31 11:28:28;;;;;;;82.50;14.32;;;;;;;;;;4984166;28;20663;-71
2022/01/31 11:30:54;;;;;;;98.00;14.52;;;;;;;;;;4984150;28;20030;-71
2022/01/31 11:33:19;;;;;;;97.20;14.82;;;;;;;;;;4983099;28;20093;-71
2022/01/31 11:35:46;;;;;;;98.50;16.58;;;;;;;;;;4984709;28;20026;-70
2022/01/31 11:38:14;;;;;;;105.80;16.65;;;;;;;;;;4985254;28;20037;-72
2022/01/31 11:40:42;;;;;;;141.88;20.60;;;;;;;;;;4985810;28;20030;-69
2022/01/31 11:43:08;;;;;;;117.63;18.90;;;;;;;;;;4983262;28;20439;-69
2022/01/31 11:45:35;;;;;;;109.45;17.05;;;;;;;;;;4983680;28;20141;-70
2022/01/31 11:48:05;;;;;;;107.47;18.83;;;;;;;;;;4983462;28;20537;-69
2022/01/31 11:50:40;;;;;;;116.25;17.38;;;;;;;;;;4984027;28;20052;-70
2022/01/31 11:53:05;;;;;;;89.65;13.75;;;;;;;;;;4989985;28;20030;-71
2022/01/31 11:55:38;;;;;;;112.53;17.55;;;;;;;;;;4983558;28;20045;-70
2022/01/31 11:58:15;;;;;;;105.47;17.25;;;;;;;;;;4998573;28;20532;-70
2022/01/31 12:00:44;;;;;;;111.28;16.58;;;;;;;;;;4983210;28;20033;-69
2022/01/31 12:03:14;;;;;;;90.25;14.57;;;;;;;;;;4983801;28;20427;-71
2022/01/31 12:05:40;;;;;;;110.00;17.02;;;;;;;;;;4983420;28;20050;-68
2022/01/31 12:08:15;;;;;;;95.47;14.63;;;;;;;;;;4983671;28;20025;-70
2022/01/31 12:10:46;;;;;;;101.82;16.00;;;;;;;;;;4983251;28;20641;-69
2022/01/31 12:13:32;;;;;;;102.65;16.20;;;;;;;;;;4983375;28;20144;-69
2022/01/31 12:16:03;;;;;;;86.63;13.88;;;;;;;;;;4990905;28;20034;-70
2022/01/31 12:23:53;;;;;;;88.97;14.43;;;;;;;;;;4983788;28;20417;-71
2022/01/31 12:26:30;;;;;;;109.82;17.50;;;;;;;;;;4983565;28;20597;-69
2022/01/31 12:29:00;;;;;;;75.32;11.73;;;;;;;;;;4982479;28;20069;-70
2022/01/31 12:31:35;;;;;;;89.07;15.73;;;;;;;;;;4982826;28;20046;-70
2022/01/31 12:34:01;;;;;;;94.45;15.10;;;;;;;;;;4988590;28;20041;-71
2022/01/31 12:36:35;;;;;;;96.38;14.73;;;;;;;;;;4983969;28;20453;-71
2022/01/31 12:39:21;;;;;;;86.57;14.27;;;;;;;;;;4982516;28;20425;-71
2022/01/31 12:41:47;;;;;;;80.95;12.10;;;;;;;;;;4982828;28;20064;-71
2022/01/31 12:44:42;;;;;;;93.78;15.68;;;;;;;;;;4981821;28;20504;-71
2022/01/31 12:47:07;;;;;;;110.40;17.00;;;;;;;;;;4978667;28;20050;-70
2022/01/31 12:49:35;;;;;;;107.13;16.65;;;;;;;;;;4982112;28;20088;-71
2022/01/31 12:52:03;;;;;;;101.85;17.08;;;;;;;;;;4982990;28;20022;-71
2022/01/31 12:54:29;;;;;;;90.38;14.10;;;;;;;;;;4981298;28;20142;-71
2022/01/31 12:56:54;;;;;;;82.53;13.02;;;;;;;;;;4983471;28;20391;-69
2022/01/31 12:59:19;;;;;;;91.82;17.05;;;;;;;;;;4982820;28;21980;-71
2022/01/31 13:01:46;;;;;;;89.70;15.00;;;;;;;;;;4982787;28;20036;-73
2022/01/31 13:04:22;;;;;;;113.78;18.00;;;;;;;;;;4982444;28;20034;-73
2022/01/31 13:07:00;;;;;;;89.43;15.10;;;;;;;;;;4983475;28;21956;-71
2022/01/31 13:09:27;;;;;;;94.65;15.80;;;;;;;;;;4990566;28;20500;-71
2022/01/31 13:11:56;;;;;;;95.68;15.63;;;;;;;;;;4988417;28;20066;-72
2022/01/31 13:14:30;;;;;;;91.72;15.38;;;;;;;;;;4982774;28;20034;-72
2022/01/31 13:17:01;;;;;;;93.63;14.68;;;;;;;;;;4983128;28;20030;-73
2022/01/31 13:19:28;;;;;;;84.22;15.65;;;;;;;;;;4982587;28;20501;-69
2022/01/31 13:21:57;;;;;;;83.78;13.82;;;;;;;;;;4986740;28;20030;-70
2022/01/31 13:24:52;;;;;;;101.53;16.02;;;;;;;;;;4982076;28;20030;-72
2022/01/31 13:27:19;;;;;;;94.28;14.30;;;;;;;;;;4979042;28;20438;-71
2022/01/31 13:29:46;;;;;;;90.20;14.15;;;;;;;;;;4986159;28;20021;-73
2022/01/31 13:32:15;;;;;;;101.65;18.45;;;;;;;;;;4987134;28;20041;-71
2022/01/31 13:34:44;;;;;;;107.57;18.75;;;;;;;;;;4986103;28;20030;-71
2022/01/31 13:37:28;;;;;;;87.65;15.25;;;;;;;;;;4985739;28;20245;-71
2022/01/31 13:39:58;;;;;;;95.90;15.85;;;;;;;;;;4986934;28;20179;-71
2022/01/31 13:42:26;;;;;;;96.20;15.15;;;;;;;;;;4989574;28;20188;-72
2022/01/31 13:44:56;;;;;;;101.38;16.30;;;;;;;;;;4989824;28;20586;-71
2022/01/31 13:47:41;;;;;;;87.22;15.73;;;;;;;;;;4991136;28;20036;-71
2022/01/31 13:50:13;;;;;;;98.93;14.75;;;;;;;;;;4990535;28;20443;-70
2022/01/31 13:52:49;;;;;;;101.18;16.85;;;;;;;;;;4990487;28;20406;-72
2022/01/31 13:55:15;;;;;;;96.97;15.65;;;;;;;;;;4993926;28;20026;-70
2022/01/31 13:57:43;;;;;;;79.80;12.40;;;;;;;;;;4988161;28;20042;-70
2022/01/31 14:00:09;;;;;;;89.80;15.07;;;;;;;;;;4993611;28;20033;-70
2022/01/31 14:02:35;;;;;;;81.95;13.25;;;;;;;;;;4990360;28;20048;-68
2022/01/31 14:05:02;;;;;;;80.85;13.85;;;;;;;;;;4990390;28;20127;-70
2022/01/31 14:07:29;;;;;;;79.43;13.40;;;;;;;;;;4990347;28;20057;-70
2022/01/31 14:09:55;;;;;;;71.85;12.68;;;;;;;;;;4989465;28;20108;-71
2022/01/31 14:12:23;;;;;;;92.22;16.15;;;;;;;;;;4989430;28;20479;-71
2022/01/31 14:14:48;;;;;;;79.55;13.27;;;;;;;;;;4988502;28;20040;-70
2022/01/31 14:17:14;;;;;;;98.07;14.48;;;;;;;;;;4989555;28;20042;-71
2022/01/31 14:19:42;;;;;;;121.53;18.10;;;;;;;;;;4987908;28;20285;-71
2022/01/31 14:22:07;;;;;;;115.20;18.58;;;;;;;;;;4993426;28;20030;-69
2022/01/31 14:24:33;;;;;;;110.07;17.30;;;;;;;;;;4990637;28;20200;-69
2022/01/31 14:27:07;;;;;;;93.65;14.65;;;;;;;;;;4988938;28;20030;-69
2022/01/31 14:29:36;;;;;;;102.72;16.08;;;;;;;;;;4989289;28;20042;-71
2022/01/31 14:32:04;;;;;;;87.65;14.02;;;;;;;;;;5003651;28;20044;-68
2022/01/31 14:34:29;;;;;;;81.88;14.00;;;;;;;;;;4992968;28;20124;-70
2022/01/31 14:37:04;;;;;;;96.38;16.08;;;;;;;;;;4989348;28;20427;-70
2022/01/31 14:39:37;;;;;;;86.50;13.70;;;;;;;;;;4989250;28;20181;-69
2022/01/31 14:42:26;;;;;;;58.38;10.55;;;;;;;;;;4988815;28;20065;-71
2022/01/31 14:47:40;;;;;;;85.10;16.10;;;;;;;;;;4988833;28;20021;-70
2022/01/31 14:50:10;;;;;;;68.38;11.18;;;;;;;;;;4989014;28;20527;-71
2022/01/31 14:52:38;;;;;;;76.47;12.70;;;;;;;;;;4988229;28;20502;-71
2022/01/31 14:55:16;;;;;;;88.18;13.73;;;;;;;;;;4988530;28;20026;-70
2022/01/31 14:57:42;;;;;;;94.90;15.13;;;;;;;;;;4989093;28;20241;-70
2022/01/31 15:00:09;;;;;;;82.88;12.65;;;;;;;;;;4988053;28;20022;-69
2022/01/31 15:02:36;;;;;;;95.78;16.45;;;;;;;;;;4985636;28;20405;-69
2022/01/31 15:05:02;;;;;;;84.22;14.25;;;;;;;;;;4984504;28;20117;-69